Time;durP1;ratioP1;P1;durP2;ratioP2;P2;SDS_P1;SDS_P2;PMS_P1;PMS_P2;Temp;Humidity;BMP_temperature;BMP_pressure;BME280_temperature;BME280_humidity;BME280_pressure;Samples;Min_cycle;Max_cycle;Signal;HPM_P1;HPM_P2
2021/10/22 00:01:27;;;;;;;2.22;2.05;;;;;;;;;;5073464;28;20200;-83
2021/10/22 00:03:54;;;;;;;3.15;2.50;;;;;;;;;;5073454;28;20283;-83
2021/10/22 00:06:23;;;;;;;2.35;2.15;;;;;;;;;;5067575;28;20227;-83
2021/10/22 00:08:50;;;;;;;2.97;2.63;;;;;;;;;;5072912;28;20665;-83
2021/10/22 00:11:17;;;;;;;3.25;1.80;;;;;;;;;;5053993;28;20246;-83
2021/10/22 00:13:44;;;;;;;1.83;1.73;;;;;;;;;;5065896;28;20199;-83
2021/10/22 00:16:11;;;;;;;5.57;2.10;;;;;;;;;;5073379;28;20736;-83
2021/10/22 00:18:39;;;;;;;2.60;2.28;;;;;;;;;;5072266;28;20612;-83
2021/10/22 00:21:06;;;;;;;2.40;2.20;;;;;;;;;;5073292;28;20263;-83
2021/10/22 00:23:35;;;;;;;1.92;1.60;;;;;;;;;;5073028;28;20254;-83
2021/10/22 00:26:02;;;;;;;3.28;2.20;;;;;;;;;;5073128;28;20277;-83
2021/10/22 00:28:29;;;;;;;2.13;1.58;;;7.20;99.90;;;;;;5072493;28;20273;-83
2021/10/22 00:30:57;;;;;;;2.25;1.65;;;;;;;;;;5072864;28;20200;-83
2021/10/22 00:33:24;;;;;;;2.20;1.80;;;;;;;;;;5073162;28;20222;-83
2021/10/22 00:35:51;;;;;;;3.50;1.70;;;;;;;;;;5072410;28;20240;-83
2021/10/22 00:38:18;;;;;;;2.22;1.83;;;;;;;;;;5072441;28;20289;-83
2021/10/22 00:40:47;;;;;;;2.63;2.13;;;;;;;;;;5072835;28;20196;-83
2021/10/22 00:43:14;;;;;;;2.45;1.85;;;;;;;;;;5071976;28;20243;-83
2021/10/22 00:45:42;;;;;;;1.83;1.73;;;;;;;;;;5072674;28;20254;-83
2021/10/22 00:48:09;;;;;;;5.60;1.80;;;6.70;99.90;;;;;;5072121;28;20223;-83
2021/10/22 00:50:39;;;;;;;1.70;1.60;;;6.80;99.90;;;;;;5072265;28;20293;-83
2021/10/22 00:53:07;;;;;;;2.15;1.80;;;;;;;;;;5072890;28;20283;-82
2021/10/22 00:55:34;;;;;;;2.45;1.80;;;;;;;;;;5072631;28;20229;-83
2021/10/22 00:58:03;;;;;;;3.00;2.10;;;;;;;;;;5072255;28;20305;-83
2021/10/22 01:00:30;;;;;;;2.60;2.40;;;;;;;;;;5072166;28;20270;-83
2021/10/22 01:02:57;;;;;;;2.30;2.03;;;;;;;;;;5066996;28;20207;-83
2021/10/22 01:05:25;;;;;;;4.82;2.78;;;;;;;;;;5072374;28;20209;-83
2021/10/22 01:07:52;;;;;;;2.20;2.00;;;;;;;;;;5071531;28;20254;-83
2021/10/22 01:10:19;;;;;;;1.92;1.75;;;;;;;;;;5072389;28;20208;-83
2021/10/22 01:12:46;;;;;;;2.95;1.80;;;;;;;;;;5072382;28;20204;-83
2021/10/22 01:15:15;;;;;;;3.65;2.10;;;;;;;;;;5072122;28;20241;-83
2021/10/22 01:17:46;;;;;;;4.35;1.73;;;7.10;99.90;;;;;;5071474;28;20706;-83
2021/10/22 01:20:14;;;;;;;2.70;1.85;;;7.10;99.90;;;;;;5067235;28;20637;-83
2021/10/22 01:22:44;;;;;;;2.83;1.95;;;7.10;99.90;;;;;;5072177;28;20309;-83
2021/10/22 01:25:14;;;;;;;2.72;1.85;;;7.20;99.90;;;;;;5071861;28;20734;-83
2021/10/22 01:27:42;;;;;;;5.03;3.08;;;7.20;99.90;;;;;;5071722;28;20297;-83
2021/10/22 01:30:11;;;;;;;2.40;2.20;;;7.20;99.90;;;;;;5071298;28;20328;-83
2021/10/22 01:32:39;;;;;;;1.88;1.60;;;;;;;;;;5072214;28;20564;-83
2021/10/22 01:35:09;;;;;;;4.60;2.10;;;7.20;99.90;;;;;;5071618;28;20605;-83
2021/10/22 01:37:36;;;;;;;2.00;1.80;;;;;;;;;;5071205;28;20206;-83
2021/10/22 01:40:05;;;;;;;1.40;1.30;;;;;;;;;;5071896;28;20260;-83
2021/10/22 01:42:32;;;;;;;3.25;1.83;;;;;;;;;;5071268;28;20606;-83
2021/10/22 01:44:59;;;;;;;3.05;1.63;;;;;;;;;;5071511;28;20203;-83
2021/10/22 01:47:27;;;;;;;3.53;1.98;;;;;;;;;;5071336;28;20231;-83
2021/10/22 01:49:54;;;;;;;1.95;1.85;;;;;;;;;;5071234;28;20196;-83
2021/10/22 01:52:21;;;;;;;5.13;1.85;;;7.10;99.90;;;;;;5071542;28;20251;-83
2021/10/22 01:54:49;;;;;;;4.00;1.67;;;;;;;;;;5070211;28;20249;-83
2021/10/22 01:57:17;;;;;;;1.70;1.60;;;;;;;;;;5064854;28;20261;-83
2021/10/22 01:59:46;;;;;;;3.55;2.17;;;;;;;;;;5070981;28;20234;-82
2021/10/22 02:02:14;;;;;;;2.33;2.13;;;;;;;;;;5071762;28;20226;-82
2021/10/22 02:04:41;;;;;;;2.97;2.17;;;;;;;;;;5071156;28;20231;-82
2021/10/22 02:07:08;;;;;;;3.80;2.65;;;;;;;;;;5070413;28;20288;-83
2021/10/22 02:09:35;;;;;;;2.70;2.50;;;7.00;99.90;;;;;;5070997;28;20257;-82
2021/10/22 02:12:02;;;;;;;2.95;2.63;;;7.00;99.90;;;;;;5071863;28;20293;-82
2021/10/22 02:14:31;;;;;;;3.00;2.80;;;7.00;99.90;;;;;;5070973;28;20223;-82
2021/10/22 02:16:58;;;;;;;3.47;2.72;;;6.90;99.90;;;;;;5070782;28;20245;-83
2021/10/22 02:19:24;;;;;;;3.58;2.65;;;6.80;99.90;;;;;;5070967;28;20532;-83
2021/10/22 02:21:52;;;;;;;7.93;2.80;;;;;;;;;;5071124;28;20258;-83
2021/10/22 02:24:19;;;;;;;2.58;2.38;;;;;;;;;;5070324;28;20220;-83
2021/10/22 02:26:46;;;;;;;2.60;2.40;;;6.70;99.90;;;;;;5070562;28;20207;-83
2021/10/22 02:29:13;;;;;;;2.53;2.33;;;6.80;99.90;;;;;;5070320;28;20239;-83
2021/10/22 02:31:41;;;;;;;2.85;2.50;;;6.40;99.90;;;;;;5070899;28;20233;-83
2021/10/22 02:34:08;;;;;;;2.88;2.65;;;;;;;;;;5070615;28;20196;-83
2021/10/22 02:36:36;;;;;;;3.05;2.25;;;;;;;;;;5069421;28;20305;-83
2021/10/22 02:39:03;;;;;;;3.55;3.25;;;;;;;;;;5070447;28;20302;-82
2021/10/22 02:41:30;;;;;;;3.95;2.20;;;;;;;;;;5070463;28;20287;-83
2021/10/22 02:43:57;;;;;;;2.40;2.20;;;;;;;;;;5070564;28;20335;-82
2021/10/22 02:46:24;;;;;;;2.75;2.53;;;;;;;;;;5069974;28;20308;-82
2021/10/22 02:48:53;;;;;;;3.15;2.15;;;6.30;99.90;;;;;;5070354;28;20207;-82
2021/10/22 02:51:20;;;;;;;5.18;2.30;;;;;;;;;;5064540;28;20644;-83
2021/10/22 02:53:47;;;;;;;3.92;2.40;;;;;;;;;;5070812;28;20223;-82
2021/10/22 02:56:14;;;;;;;3.08;2.83;;;;;;;;;;5070361;28;20234;-82
2021/10/22 02:58:41;;;;;;;2.45;2.25;;;;;;;;;;5069590;28;20277;-82
2021/10/22 03:01:09;;;;;;;2.92;2.72;;;;;;;;;;5070335;28;20198;-82
2021/10/22 03:03:36;;;;;;;2.78;2.30;;;;;;;;;;5070037;28;20212;-83
2021/10/22 03:06:04;;;;;;;2.90;2.50;;;5.90;99.90;;;;;;5069743;28;20285;-82
2021/10/22 03:08:31;;;;;;;2.50;2.30;;;;;;;;;;5069444;28;20204;-82
2021/10/22 03:10:59;;;;;;;2.20;2.00;;;;;;;;;;5070464;28;20192;-83
2021/10/22 03:13:26;;;;;;;2.03;1.92;;;;;;;;;;5070313;28;20219;-83
2021/10/22 03:15:53;;;;;;;4.07;2.10;;;;;;;;;;5070197;28;20228;-83
2021/10/22 03:18:20;;;;;;;4.05;2.38;;;;;;;;;;5069173;28;20295;-82
2021/10/22 03:20:47;;;;;;;2.65;2.10;;;;;;;;;;5065961;28;20652;-83
2021/10/22 03:23:16;;;;;;;3.03;2.15;;;;;;;;;;5070221;28;20305;-83
2021/10/22 03:25:43;;;;;;;6.15;2.50;;;;;;;;;;5065874;28;20291;-83
2021/10/22 03:28:10;;;;;;;2.13;1.92;;;;;;;;;;5069460;28;20296;-83
2021/10/22 03:30:38;;;;;;;3.13;2.13;;;5.60;99.90;;;;;;5069800;28;20214;-83
2021/10/22 03:33:06;;;;;;;3.95;2.05;;;5.50;99.90;;;;;;5069525;28;20663;-83
2021/10/22 03:35:33;;;;;;;3.50;2.00;;;;;;;;;;5070179;28;20199;-83
2021/10/22 03:38:00;;;;;;;2.28;1.77;;;;;;;;;;5069431;28;20282;-83
2021/10/22 03:40:28;;;;;;;5.30;3.22;;;5.40;99.90;;;;;;5069620;28;20195;-83
2021/10/22 03:42:57;;;;;;;2.35;1.83;;;5.30;99.90;;;;;;5069642;28;20222;-83
2021/10/22 03:45:25;;;;;;;3.47;2.20;;;;;;;;;;5069401;28;20275;-83
2021/10/22 03:47:53;;;;;;;2.65;1.60;;;;;;;;;;5062606;28;20237;-83
2021/10/22 03:50:20;;;;;;;2.40;1.83;;;;;;;;;;5068748;28;20243;-83
2021/10/22 03:52:47;;;;;;;2.20;1.95;;;4.90;99.90;;;;;;5068930;28;20664;-83
2021/10/22 03:55:15;;;;;;;4.32;2.40;;;5.10;99.90;;;;;;5069469;28;20532;-83
2021/10/22 03:57:43;;;;;;;2.40;2.20;;;;;;;;;;5069082;28;20229;-83
2021/10/22 04:00:11;;;;;;;3.67;1.92;;;5.00;99.90;;;;;;5069120;28;20243;-83
2021/10/22 04:02:38;;;;;;;5.05;2.70;;;;;;;;;;5069710;28;20292;-83
2021/10/22 04:05:07;;;;;;;4.18;2.72;;;4.80;99.90;;;;;;5069968;28;20287;-83
2021/10/22 04:07:35;;;;;;;4.00;2.60;;;4.90;99.90;;;;;;5069018;28;20202;-83
2021/10/22 04:10:02;;;;;;;2.90;1.90;;;5.00;99.90;;;;;;5069764;28;20210;-84
2021/10/22 04:12:29;;;;;;;8.07;2.83;;;4.80;99.90;;;;;;5069095;28;20199;-83
2021/10/22 04:14:57;;;;;;;5.25;2.30;;;4.80;99.90;;;;;;5069759;28;20255;-83
2021/10/22 04:17:24;;;;;;;2.03;1.92;;;;;;;;;;5068972;28;20213;-83
2021/10/22 04:19:52;;;;;;;7.63;2.50;;;;;;;;;;5067032;28;20232;-83
2021/10/22 04:22:19;;;;;;;1.98;1.77;;;;;;;;;;5073328;28;20279;-83
2021/10/22 04:24:46;;;;;;;4.05;2.17;;;;;;;;;;5072682;28;20248;-83
2021/10/22 04:27:13;;;;;;;3.50;2.35;;;;;;;;;;5072101;28;20286;-83
2021/10/22 04:29:41;;;;;;;2.42;2.22;;;;;;;;;;5072700;28;20285;-83
2021/10/22 04:32:10;;;;;;;7.70;2.15;;;;;;;;;;5073418;28;20700;-83
2021/10/22 04:34:37;;;;;;;1.92;1.73;;;;;;;;;;5073125;28;20224;-83
2021/10/22 04:37:22;;;;;;;4.50;1.83;;;;;;;;;;5072223;28;20254;-83
2021/10/22 04:42:39;;;;;;;2.60;2.15;;;4.50;99.90;;;;;;5071397;28;20208;-83
2021/10/22 04:45:08;;;;;;;4.55;2.03;;;4.50;99.90;;;;;;5072938;28;20317;-83
2021/10/22 04:47:37;;;;;;;3.30;2.45;;;;;;;;;;5073057;28;20726;-83
2021/10/22 04:50:06;;;;;;;3.45;2.30;;;4.60;99.90;;;;;;5072869;28;20296;-83
2021/10/22 04:52:33;;;;;;;1.95;1.75;;;;;;;;;;5072313;28;20884;-83
2021/10/22 04:55:00;;;;;;;4.05;2.30;;;4.20;99.90;;;;;;5072182;28;20596;-83
2021/10/22 04:57:27;;;;;;;2.55;2.00;;;;;;;;;;5072064;28;20247;-83
2021/10/22 04:59:54;;;;;;;3.97;2.63;;;;;;;;;;5069586;28;20331;-83
2021/10/22 05:02:22;;;;;;;3.00;2.30;;;;;;;;;;5071713;28;20248;-84
2021/10/22 05:04:50;;;;;;;11.63;2.95;;;;;;;;;;5072063;28;20298;-83
2021/10/22 05:07:17;;;;;;;5.03;2.33;;;;;;;;;;5071880;28;20232;-83
2021/10/22 05:09:44;;;;;;;4.95;2.60;;;;;;;;;;5072471;28;20196;-83
2021/10/22 05:12:12;;;;;;;3.65;2.05;;;;;;;;;;5071347;28;20240;-83
2021/10/22 05:14:40;;;;;;;3.25;2.65;;;;;;;;;;5072637;28;20199;-83
2021/10/22 05:17:07;;;;;;;4.60;2.47;;;;;;;;;;5071161;28;20215;-84
2021/10/22 05:19:34;;;;;;;3.25;2.42;;;;;;;;;;5071971;28;20295;-83
2021/10/22 05:22:03;;;;;;;3.08;2.15;;;;;;;;;;5072443;28;20221;-83
2021/10/22 05:24:30;;;;;;;3.67;2.58;;;;;;;;;;5072195;28;20720;-84
2021/10/22 05:26:57;;;;;;;3.05;2.30;;;;;;;;;;5066457;28;20200;-83
2021/10/22 05:29:25;;;;;;;5.63;2.20;;;;;;;;;;5064787;28;20299;-83
2021/10/22 05:31:52;;;;;;;2.25;2.00;;;;;;;;;;5069850;28;20328;-83
2021/10/22 05:34:20;;;;;;;2.40;2.20;;;;;;;;;;5071536;28;20229;-84
2021/10/22 05:36:47;;;;;;;3.28;1.77;;;;;;;;;;5057471;28;20208;-83
2021/10/22 05:39:16;;;;;;;4.00;2.30;;;;;;;;;;5067071;28;20193;-84
2021/10/22 05:41:44;;;;;;;2.10;1.63;;;;;;;;;;5071209;28;20234;-83
2021/10/22 05:44:11;;;;;;;4.10;2.03;;;;;;;;;;5071033;28;20212;-83
2021/10/22 05:46:38;;;;;;;4.82;1.83;;;;;;;;;;5071503;28;20206;-83
2021/10/22 05:49:06;;;;;;;2.17;1.90;;;;;;;;;;5071364;28;20223;-83
2021/10/22 05:51:33;;;;;;;5.65;2.17;;;;;;;;;;5071356;28;20295;-83
2021/10/22 05:54:01;;;;;;;6.07;3.28;;;;;;;;;;5070059;28;20200;-84
2021/10/22 05:56:29;;;;;;;3.67;2.67;;;4.10;99.90;;;;;;5068555;28;20201;-83
2021/10/22 05:58:56;;;;;;;6.32;2.78;;;;;;;;;;5071086;28;20282;-84
2021/10/22 06:01:23;;;;;;;7.55;2.45;;;;;;;;;;5070663;28;20191;-84
2021/10/22 06:03:50;;;;;;;4.25;2.58;;;;;;;;;;5070895;28;20240;-84
2021/10/22 06:06:18;;;;;;;3.65;2.25;;;;;;;;;;5060643;28;20219;-83
2021/10/22 06:08:45;;;;;;;16.65;2.90;;;4.10;99.90;;;;;;5067457;28;20256;-84
2021/10/22 06:11:12;;;;;;;2.92;2.00;;;;;;;;;;5070927;28;20265;-84
2021/10/22 06:13:41;;;;;;;3.70;3.05;;;;;;;;;;5070845;28;20199;-84
2021/10/22 06:16:10;;;;;;;6.63;2.88;;;4.10;99.90;;;;;;5071358;28;20245;-83
2021/10/22 06:18:44;;;;;;;6.20;2.03;;;4.10;99.90;;;;;;5070833;28;20219;-83
2021/10/22 06:21:19;;;;;;;9.10;3.60;;;;;;;;;;5067325;28;20202;-84
2021/10/22 06:23:56;;;;;;;8.40;4.38;;;;;;;;;;5070689;28;20317;-83
2021/10/22 06:26:23;;;;;;;3.10;2.80;;;;;;;;;;5071170;28;20579;-83
2021/10/22 06:28:53;;;;;;;5.82;2.97;;;4.20;99.90;;;;;;5071061;28;20256;-84
2021/10/22 06:31:20;;;;;;;2.75;2.15;;;;;;;;;;5071547;28;20238;-84
2021/10/22 06:33:47;;;;;;;5.95;2.47;;;;;;;;;;5069329;28;20188;-83
2021/10/22 06:36:15;;;;;;;4.00;2.22;;;;;;;;;;5069964;28;20193;-84
2021/10/22 06:38:42;;;;;;;6.35;2.53;;;;;;;;;;5070814;28;20196;-84
2021/10/22 06:41:09;;;;;;;12.23;3.60;;;4.30;99.90;;;;;;5070455;28;20239;-84
2021/10/22 06:43:37;;;;;;;4.45;2.75;;;4.40;99.90;;;;;;5068859;28;20216;-83
2021/10/22 06:46:07;;;;;;;8.70;3.75;;;4.50;99.90;;;;;;5067648;28;20204;-83
2021/10/22 06:48:35;;;;;;;5.00;3.05;;;;;;;;;;5070180;28;20322;-84
2021/10/22 06:51:02;;;;;;;9.07;3.05;;;;;;;;;;5070073;28;20727;-83
2021/10/22 06:53:29;;;;;;;8.70;3.42;;;;;;;;;;5070504;28;20211;-84
2021/10/22 06:55:57;;;;;;;6.38;4.15;;;;;;;;;;5076817;28;20194;-83
2021/10/22 06:58:24;;;;;;;9.55;3.40;;;;;;;;;;5071383;28;20201;-84
2021/10/22 07:00:51;;;;;;;2.30;2.10;;;;;;;;;;5069928;28;20256;-84
2021/10/22 07:03:24;;;;;;;3.85;2.88;;;5.30;99.90;;;;;;5064340;28;20235;-83
2021/10/22 07:07:14;;;;;;;3.72;2.42;;;;;;;;;;5059030;28;20259;-84
2021/10/22 07:08:50;;;;;;;7.53;3.05;;;4.30;99.90;;;;;;5066768;28;20213;-83
2021/10/22 07:11:19;;;;;;;10.32;2.80;;;5.10;99.90;;;;;;5070285;28;20284;-83
2021/10/22 07:13:50;;;;;;;7.07;2.67;;;;;;;;;;5055289;28;20311;-84
2021/10/22 07:16:17;;;;;;;8.50;2.80;;;5.30;99.90;;;;;;5070208;28;20590;-84
2021/10/22 07:18:46;;;;;;;6.22;2.50;;;5.30;99.90;;;;;;5069925;28;20221;-84
2021/10/22 07:21:16;;;;;;;8.63;3.75;;;;;;;;;;5070420;28;20283;-84
2021/10/22 07:23:44;;;;;;;6.95;2.75;;;5.60;99.90;;;;;;5065414;28;20645;-83
2021/10/22 07:26:12;;;;;;;17.73;3.25;;;;;;;;;;5069511;28;20204;-84
2021/10/22 07:28:39;;;;;;;5.95;3.17;;;;;;;;;;5069739;28;20284;-84
2021/10/22 07:31:10;;;;;;;9.10;3.80;;;;;;;;;;5069435;28;20210;-84
2021/10/22 07:33:38;;;;;;;2.17;1.90;;;;;;;;;;5069748;28;20213;-84
2021/10/22 07:36:08;;;;;;;7.32;2.42;;;;;;;;;;5062971;28;20622;-84
2021/10/22 07:38:35;;;;;;;4.63;2.05;;;;;;;;;;5067935;28;20204;-84
2021/10/22 07:41:03;;;;;;;10.68;3.10;;;;;;;;;;5068750;28;20211;-84
2021/10/22 07:43:31;;;;;;;4.63;2.65;;;;;;;;;;5069568;28;20226;-83
2021/10/22 07:45:59;;;;;;;3.80;2.45;;;;;;;;;;5069616;28;20310;-84
2021/10/22 07:48:26;;;;;;;5.60;2.85;;;6.90;99.90;;;;;;5068665;28;20206;-84
2021/10/22 07:50:53;;;;;;;6.97;3.53;;;;;;;;;;5066553;28;20203;-84
2021/10/22 07:53:22;;;;;;;3.35;2.42;;;;;;;;;;5065842;28;20282;-85
2021/10/22 07:55:49;;;;;;;10.43;2.80;;;8.60;99.90;;;;;;5070514;28;20267;-84
2021/10/22 07:58:17;;;;;;;5.13;2.05;;;;;;;;;;5065758;28;20224;-84
2021/10/22 08:00:44;;;;;;;5.47;2.08;;;;;;;;;;5070856;28;20222;-84
2021/10/22 08:03:11;;;;;;;5.43;2.75;;;;;;;;;;5073341;28;20577;-84
2021/10/22 08:05:39;;;;;;;4.90;2.45;;;;;;;;;;5073849;28;20280;-84
2021/10/22 08:08:07;;;;;;;7.30;2.40;;;6.30;99.90;;;;;;5071827;28;20260;-83
2021/10/22 08:10:36;;;;;;;5.82;2.42;;;6.60;99.90;;;;;;5072639;28;20735;-84
2021/10/22 08:13:05;;;;;;;14.77;2.53;;;;;;;;;;5072199;28;20210;-84
2021/10/22 08:15:32;;;;;;;8.88;2.30;;;6.70;99.90;;;;;;5073322;28;20553;-84
2021/10/22 08:17:59;;;;;;;5.47;2.55;;;;;;;;;;5072433;28;20246;-84
2021/10/22 08:20:28;;;;;;;2.65;2.15;;;;;;;;;;5072008;28;20204;-84
2021/10/22 08:22:55;;;;;;;9.02;2.45;;;;;;;;;;5072177;28;20823;-84
2021/10/22 08:25:22;;;;;;;13.20;2.53;;;;;;;;;;5060650;28;20220;-84
2021/10/22 08:27:51;;;;;;;2.75;2.15;;;7.10;99.90;;;;;;5090534;28;20213;-84
2021/10/22 08:30:21;;;;;;;5.93;2.47;;;7.10;99.90;;;;;;5072858;28;20215;-84
2021/10/22 08:32:50;;;;;;;3.28;1.85;;;;;;;;;;5072246;28;20208;-82
2021/10/22 08:35:17;;;;;;;5.75;2.70;;;;;;;;;;5072777;28;20603;-85
2021/10/22 08:37:44;;;;;;;4.80;1.90;;;;;;;;;;5071986;28;20255;-84
2021/10/22 08:40:13;;;;;;;9.02;2.45;;;8.20;99.90;;;;;;5069259;28;20582;-84
2021/10/22 08:42:41;;;;;;;7.70;1.73;;;7.30;99.90;;;;;;5073751;28;20265;-84
2021/10/22 08:45:09;;;;;;;3.80;1.60;;;;;;;;;;5073806;28;20222;-84
2021/10/22 08:47:37;;;;;;;14.02;2.75;;;7.40;99.90;;;;;;5072707;28;20210;-84
2021/10/22 08:50:07;;;;;;;4.00;1.50;;;6.80;99.90;;;;;;5071514;28;20213;-84
2021/10/22 08:52:35;;;;;;;5.40;2.00;;;7.40;99.90;;;;;;5072939;28;20262;-84
2021/10/22 08:55:04;;;;;;;6.30;1.90;;;7.40;99.90;;;;;;5072433;28;20203;-84
2021/10/22 08:57:32;;;;;;;10.55;2.38;;;;;;;;;;5072460;28;20265;-84
2021/10/22 09:00:02;;;;;;;7.75;1.50;;;;;;;;;;5069765;28;20230;-84
2021/10/22 09:02:30;;;;;;;6.15;2.03;;;;;;;;;;5063489;28;20207;-84
2021/10/22 09:05:08;;;;;;;8.93;2.70;;;7.70;99.90;;;;;;5072889;28;20310;-84
2021/10/22 09:07:46;;;;;;;5.55;2.08;;;7.80;99.90;;;;;;5069970;28;20200;-84
2021/10/22 09:10:16;;;;;;;3.33;1.85;;;7.70;99.90;;;;;;5073759;28;20238;-84
2021/10/22 09:12:56;;;;;;;6.47;2.00;;;7.70;99.90;;;;;;5072095;28;20210;-84
2021/10/22 09:15:25;;;;;;;3.58;1.98;;;7.70;99.90;;;;;;5063858;28;20690;-84
2021/10/22 09:17:55;;;;;;;3.80;1.95;;;7.80;99.90;;;;;;5057620;28;20220;-85
2021/10/22 09:20:23;;;;;;;5.57;1.88;;;7.50;99.90;;;;;;5067119;28;20281;-84
2021/10/22 09:22:55;;;;;;;4.30;1.98;;;7.80;99.90;;;;;;5071853;28;20200;-84
2021/10/22 09:25:24;;;;;;;4.68;1.45;;;7.80;99.90;;;;;;5071964;28;20226;-85
2021/10/22 09:27:56;;;;;;;2.28;1.35;;;7.90;99.90;;;;;;5070794;28;20660;-84
2021/10/22 09:30:47;;;;;;;6.20;3.85;;;8.00;99.90;;;;;;5071945;28;20211;-84
2021/10/22 09:33:17;;;;;;;5.07;2.08;;;8.10;99.90;;;;;;5068939;28;20634;-85
2021/10/22 09:35:46;;;;;;;1.83;1.20;;;8.00;99.90;;;;;;5069887;28;20239;-84
2021/10/22 09:38:15;;;;;;;2.83;1.25;;;8.00;99.90;;;;;;5071012;28;20203;-84
2021/10/22 09:40:42;;;;;;;8.93;2.00;;;;;;;;;;5071263;28;20612;-84
2021/10/22 09:43:15;;;;;;;5.63;1.42;;;8.00;99.90;;;;;;5072016;28;20199;-82
2021/10/22 09:45:44;;;;;;;3.58;1.75;;;;;;;;;;5071815;28;20220;-84
2021/10/22 09:48:33;;;;;;;2.35;0.90;;;8.10;99.30;;;;;;5071458;28;20210;-83
2021/10/22 09:51:23;;;;;;;3.70;1.48;;;8.10;98.60;;;;;;5066504;28;20281;-84
2021/10/22 09:53:50;;;;;;;6.50;1.85;;;;;;;;;;5069014;28;20649;-84
2021/10/22 09:56:22;;;;;;;4.35;2.10;;;8.40;98.80;;;;;;5068262;28;20195;-83
2021/10/22 09:59:02;;;;;;;3.00;1.20;;;8.90;99.90;;;;;;5070899;28;20261;-83
2021/10/22 10:01:32;;;;;;;2.28;1.02;;;8.40;97.30;;;;;;5071712;28;20692;-84
2021/10/22 10:04:01;;;;;;;6.43;2.10;;;;;;;;;;5071052;28;20265;-83
2021/10/22 10:06:29;;;;;;;4.10;1.50;;;;;;;;;;5070331;28;20223;-84
2021/10/22 10:08:56;;;;;;;5.70;1.33;;;;;;;;;;5070673;28;20204;-83
2021/10/22 10:11:25;;;;;;;5.78;1.30;;;8.20;94.00;;;;;;5070798;28;20256;-83
2021/10/22 10:13:52;;;;;;;3.05;1.15;;;;;;;;;;5071236;28;20566;-83
2021/10/22 10:16:19;;;;;;;5.15;1.13;;;;;;;;;;5070286;28;20214;-84
2021/10/22 10:18:52;;;;;;;3.80;1.80;;;8.50;94.30;;;;;;5068319;28;20200;-83
2021/10/22 10:21:22;;;;;;;2.65;0.77;;;8.60;94.20;;;;;;5070963;28;20287;-82
2021/10/22 10:23:50;;;;;;;4.22;1.42;;;;;;;;;;5071494;28;20291;-84
2021/10/22 10:26:26;;;;;;;4.13;1.10;;;8.50;91.20;;;;;;5071153;28;20258;-84
2021/10/22 10:28:54;;;;;;;3.70;1.40;;;8.70;94.10;;;;;;5071509;28;20207;-85
2021/10/22 10:31:36;;;;;;;0.85;0.77;;;8.90;93.00;;;;;;5071655;28;20215;-84
2021/10/22 10:34:50;;;;;;;4.10;1.27;;;8.80;92.60;;;;;;5071979;28;20620;-84
2021/10/22 10:37:27;;;;;;;5.70;1.00;;;8.80;92.40;;;;;;5030659;28;20268;-83
2021/10/22 10:40:21;;;;;;;5.55;1.17;;;8.90;92.30;;;;;;5070088;28;20669;-85
2021/10/22 10:42:49;;;;;;;4.50;1.30;;;9.00;91.30;;;;;;5057132;28;20549;-85
2021/10/22 10:45:41;;;;;;;3.58;1.10;;;8.90;90.20;;;;;;5070831;28;20688;-84
2021/10/22 10:48:10;;;;;;;3.10;1.83;;;9.00;87.90;;;;;;5069371;28;20266;-85
2021/10/22 10:50:46;;;;;;;1.23;0.80;;;9.00;89.50;;;;;;5065300;28;20645;-84
2021/10/22 10:53:17;;;;;;;5.33;1.77;;;9.00;88.10;;;;;;5070723;28;20632;-84
2021/10/22 10:55:45;;;;;;;2.28;1.35;;;9.10;87.30;;;;;;5070029;28;20668;-85
2021/10/22 10:58:18;;;;;;;3.37;1.30;;;9.10;88.10;;;;;;5070119;28;20242;-85
2021/10/22 11:00:47;;;;;;;3.30;1.07;;;8.90;86.90;;;;;;5079911;28;20613;-84
2021/10/22 11:03:22;;;;;;;4.10;1.48;;;9.10;86.70;;;;;;5070091;28;21861;-84
2021/10/22 11:06:11;;;;;;;1.00;0.70;;;9.20;99.00;;;;;;5070244;28;20304;-85
2021/10/22 11:08:43;;;;;;;1.75;0.80;;;;;;;;;;5056885;28;20627;-83
2021/10/22 11:11:26;;;;;;;3.50;0.90;;;9.10;85.30;;;;;;5069339;28;20211;-84
2021/10/22 11:13:55;;;;;;;0.90;0.50;;;9.20;83.40;;;;;;5070194;28;21214;-84
2021/10/22 11:16:35;;;;;;;3.07;1.10;;;9.30;82.50;;;;;;5069486;28;20654;-84
2021/10/22 11:19:05;;;;;;;3.70;1.07;;;9.20;83.20;;;;;;5070301;28;21165;-84
2021/10/22 11:21:34;;;;;;;2.67;1.13;;;9.20;81.20;;;;;;5069365;28;20637;-84
2021/10/22 11:24:04;;;;;;;2.10;1.08;;;9.30;83.20;;;;;;5069742;28;20751;-83
2021/10/22 11:26:32;;;;;;;1.80;0.90;;;9.40;99.90;;;;;;5048302;28;20315;-84
2021/10/22 11:29:14;;;;;;;4.00;1.07;;;9.40;81.10;;;;;;5049891;28;20692;-84
2021/10/22 11:31:43;;;;;;;11.30;1.40;;;9.50;83.10;;;;;;5068718;28;20621;-84
2021/10/22 11:34:14;;;;;;;2.20;1.00;;;9.60;81.80;;;;;;5069068;28;20655;-85
2021/10/22 11:36:41;;;;;;;1.70;0.83;;;;;;;;;;5069889;28;20203;-84
2021/10/22 11:39:21;;;;;;;2.00;0.60;;;9.60;78.10;;;;;;5063134;28;20840;-84
2021/10/22 11:42:01;;;;;;;3.33;0.67;;;;;;;;;;5069423;28;21175;-83
2021/10/22 11:44:28;;;;;;;5.73;1.13;;;;;;;;;;5069290;28;20698;-85
2021/10/22 11:46:55;;;;;;;1.80;0.77;;;;;;;;;;5069185;28;20661;-84
2021/10/22 11:49:26;;;;;;;1.30;0.90;;;;;;;;;;5069827;28;20868;-85
2021/10/22 11:51:54;;;;;;;2.40;0.80;;;;;;;;;;5069365;28;20633;-85
2021/10/22 11:54:23;;;;;;;1.40;0.60;;;;;;;;;;5069415;28;21215;-84
2021/10/22 11:56:50;;;;;;;1.35;0.63;;;;;;;;;;5056023;28;20725;-84
2021/10/22 11:59:18;;;;;;;0.90;0.90;;;;;;;;;;5057022;28;20284;-85
2021/10/22 12:01:46;;;;;;;1.03;0.93;;;;;;;;;;5066546;28;20680;-85
2021/10/22 12:04:24;;;;;;;4.50;0.90;;;9.90;75.30;;;;;;5069149;28;20626;-85
2021/10/22 12:07:00;;;;;;;2.10;0.77;;;9.70;74.30;;;;;;5068727;28;20664;-85
2021/10/22 12:09:37;;;;;;;4.40;0.80;;;9.70;73.80;;;;;;5055122;28;20640;-84
2021/10/22 12:12:09;;;;;;;3.30;0.97;;;9.60;75.40;;;;;;5069492;28;20629;-84
2021/10/22 12:14:39;;;;;;;1.30;0.70;;;9.80;74.60;;;;;;5069328;28;20624;-85
2021/10/22 12:17:07;;;;;;;1.63;1.10;;;9.80;72.30;;;;;;5066623;28;20626;-84
2021/10/22 12:19:35;;;;;;;3.63;1.27;;;;;;;;;;5068939;28;20622;-84
2021/10/22 12:22:02;;;;;;;1.93;1.30;;;;;;;;;;5069863;28;20637;-84
2021/10/22 12:24:43;;;;;;;1.57;0.73;;;;;;;;;;5057378;28;20719;-85
2021/10/22 12:27:11;;;;;;;1.40;1.20;;;10.00;75.10;;;;;;5067720;28;20730;-84
2021/10/22 12:29:54;;;;;;;1.33;1.13;;;;;;;;;;5062488;28;21008;-85
2021/10/22 12:32:44;;;;;;;0.93;0.63;;;10.00;96.30;;;;;;5069620;28;20732;-84
2021/10/22 12:35:20;;;;;;;4.67;1.40;;;9.90;72.90;;;;;;5069280;28;20683;-84
2021/10/22 12:37:50;;;;;;;3.70;1.37;;;9.80;73.70;;;;;;5068889;28;20625;-84
2021/10/22 12:40:21;;;;;;;3.80;1.87;;;9.90;73.70;;;;;;5071156;28;20618;-86
2021/10/22 12:42:48;;;;;;;2.40;1.10;;;;;;;;;;5072707;28;20667;-85
2021/10/22 12:45:18;;;;;;;4.13;0.70;;;9.60;73.50;;;;;;5066648;28;20657;-85
2021/10/22 12:47:45;;;;;;;4.77;1.20;;;;;;;;;;5072089;28;20721;-87
2021/10/22 12:50:13;;;;;;;1.20;0.83;;;;;;;;;;5071555;28;20613;-85
2021/10/22 12:52:41;;;;;;;1.67;1.13;;;;;;;;;;5071957;28;21246;-85
2021/10/22 12:55:22;;;;;;;2.10;1.07;;;10.20;70.50;;;;;;5072198;28;20636;-85
2021/10/22 12:57:50;;;;;;;3.43;1.17;;;;;;;;;;5072071;28;20629;-85
2021/10/22 13:00:26;;;;;;;2.20;1.40;;;10.40;72.70;;;;;;5071973;28;20691;-85
2021/10/22 13:03:05;;;;;;;2.70;1.20;;;;;;;;;;5066221;28;20843;-83
2021/10/22 13:05:36;;;;;;;1.40;0.70;;;;;;;;;;5071952;28;20995;-86
2021/10/22 13:21:49;;;;;;;1.13;1.03;;;;;;;;;;5072223;28;20721;-85
2021/10/22 13:24:16;;;;;;;4.70;1.40;;;;;;;;;;5071780;28;21205;-85
2021/10/22 13:26:45;;;;;;;2.90;1.30;;;;;;;;;;5060999;28;20665;-85
2021/10/22 13:29:16;;;;;;;1.30;0.63;;;;;;;;;;5071037;28;20703;-84
2021/10/22 13:31:48;;;;;;;2.40;1.33;;;;;;;;;;5069539;28;20649;-85
2021/10/22 13:34:16;;;;;;;4.10;1.10;;;;;;;;;;5055755;28;20643;-84
2021/10/22 13:36:43;;;;;;;2.87;1.07;;;;;;;;;;5070897;28;20696;-86
2021/10/22 13:39:11;;;;;;;2.70;1.20;;;;;;;;;;5070463;28;21062;-85
2021/10/22 13:41:38;;;;;;;1.83;1.00;;;;;;;;;;5066328;28;20649;-85
2021/10/22 13:44:07;;;;;;;1.63;1.10;;;;;;;;;;5071147;28;21063;-84
2021/10/22 13:46:35;;;;;;;0.93;0.93;;;9.80;77.50;;;;;;5071383;28;20689;-83
2021/10/22 13:49:03;;;;;;;3.47;1.37;;;;;;;;;;5071501;28;21239;-84
2021/10/22 13:51:30;;;;;;;2.17;1.23;;;;;;;;;;5071187;28;20626;-84
2021/10/22 13:53:58;;;;;;;1.50;0.87;;;;;;;;;;5070063;28;20717;-84
2021/10/22 13:56:25;;;;;;;3.27;1.20;;;;;;;;;;5079364;28;20625;-84
2021/10/22 13:58:53;;;;;;;4.73;1.20;;;;;;;;;;5061732;28;21040;-85
2021/10/22 14:01:21;;;;;;;2.07;1.93;;;;;;;;;;5069415;28;20629;-85
2021/10/22 14:03:48;;;;;;;2.83;0.87;;;;;;;;;;5068100;28;20626;-85
2021/10/22 14:06:16;;;;;;;1.40;1.17;;;;;;;;;;5055943;28;20732;-85
2021/10/22 14:08:43;;;;;;;3.43;1.30;;;;;;;;;;5068183;28;21251;-85
2021/10/22 14:11:12;;;;;;;4.00;1.30;;;;;;;;;;5070763;28;21219;-84
2021/10/22 14:13:45;;;;;;;5.20;1.80;;;;;;;;;;5065479;28;20629;-85
2021/10/22 14:29:56;;;;;;;1.30;1.20;;;;;;;;;;5066107;28;20629;-85
2021/10/22 14:32:25;;;;;;;4.17;2.90;;;;;;;;;;5075541;28;20644;-85
2021/10/22 14:34:58;;;;;;;1.53;1.40;;;;;;;;;;5071303;28;21185;-86
2021/10/22 14:37:25;;;;;;;2.30;1.97;;;;;;;;;;5061254;28;20637;-85
2021/10/22 14:39:53;;;;;;;1.97;1.03;;;;;;;;;;5068195;28;20636;-85
2021/10/22 14:42:20;;;;;;;5.47;2.60;;;;;;;;;;5070518;28;20626;-85